Time;durP1;ratioP1;P1;durP2;ratioP2;P2;SDS_P1;SDS_P2;PMS_P1;PMS_P2;Temp;Humidity;BMP_temperature;BMP_pressure;BME280_temperature;BME280_humidity;BME280_pressure;Samples;Min_cycle;Max_cycle;Signal;HPM_P1;HPM_P2
2022/04/01 00:02:47;;;;;;;;;;;1.50;99.90;;;;;;10326942;28;84863;-50
2022/04/01 00:07:47;;;;;;;;;;;1.60;99.90;;;;;;10325993;28;84342;-48
2022/04/01 00:12:48;;;;;;;;;;;1.60;99.90;;;;;;10326383;28;84071;-47
2022/04/01 00:17:49;;;;;;;;;;;1.50;99.90;;;;;;10323198;28;84231;-50
2022/04/01 00:22:49;;;;;;;;;;;1.50;99.90;;;;;;10326757;28;84913;-49
2022/04/01 00:27:50;;;;;;;;;;;1.50;99.90;;;;;;10307527;28;84042;-49
2022/04/01 00:32:51;;;;;;;;;;;1.60;99.90;;;;;;10325812;28;84740;-50
2022/04/01 00:37:52;;;;;;;;;;;1.50;99.90;;;;;;10324461;28;84898;-50
2022/04/01 00:42:52;;;;;;;;;;;1.50;99.90;;;;;;10326018;28;84719;-51
2022/04/01 00:47:55;;;;;;;;;;;1.50;99.90;;;;;;10326099;28;84144;-49
2022/04/01 00:52:56;;;;;;;;;;;1.50;99.90;;;;;;10324119;28;84764;-48
2022/04/01 00:57:57;;;;;;;;;;;1.50;99.90;;;;;;10326531;28;85874;-49
2022/04/01 01:02:58;;;;;;;;;;;1.50;99.90;;;;;;10332444;28;84090;-47
2022/04/01 01:08:00;;;;;;;;;;;1.50;99.90;;;;;;10324545;22;85633;-52
2022/04/01 01:13:02;;;;;;;;;;;1.50;99.90;;;;;;10305498;28;85264;-48
2022/04/01 01:18:02;;;;;;;;;;;1.50;99.90;;;;;;10329740;28;86025;-50
2022/04/01 01:23:03;;;;;;;;;;;1.40;99.90;;;;;;10297631;28;86231;-47
2022/04/01 01:28:06;;;;;;;;;;;1.40;99.90;;;;;;10325367;28;84708;-49
2022/04/01 01:33:06;;;;;;;;;;;1.40;99.90;;;;;;10279593;28;86029;-48
2022/04/01 01:38:08;;;;;;;;;;;1.50;99.90;;;;;;10315249;28;84069;-49
2022/04/01 01:43:09;;;;;;;;;;;1.40;99.90;;;;;;10305544;28;87037;-53
2022/04/01 01:48:10;;;;;;;;;;;1.40;99.90;;;;;;10317972;28;86911;-53
2022/04/01 01:58:30;;;;;;;;;;;1.40;99.90;;;;;;10290322;28;86765;-49
2022/04/01 02:03:30;;;;;;;;;;;1.20;99.90;;;;;;10277996;28;86768;-48
2022/04/01 02:08:31;;;;;;;;;;;1.20;99.90;;;;;;10268604;28;86115;-48
2022/04/01 02:13:31;;;;;;;3.65;1.40;;;1.20;99.90;;;;;;10307775;28;85965;-47
2022/04/01 02:18:32;;;;;;;;;;;1.20;99.90;;;;;;10313293;28;84114;-49
2022/04/01 02:23:34;;;;;;;;;;;1.20;99.90;;;;;;10299279;28;85893;-49
2022/04/01 02:28:36;;;;;;;;;;;1.10;99.90;;;;;;10306966;28;87003;-51
2022/04/01 02:33:37;;;;;;;;;;;1.10;99.90;;;;;;10276855;28;85969;-47
2022/04/01 02:38:39;;;;;;;;;;;1.10;99.90;;;;;;10284024;28;86285;-52
2022/04/01 02:43:40;;;;;;;;;;;1.10;99.90;;;;;;10271168;28;86517;-49
2022/04/01 02:48:41;;;;;;;;;;;1.10;99.90;;;;;;10250235;28;86251;-48
2022/04/01 02:53:57;;;;;;;;;;;1.10;99.90;;;;;;10285710;28;84730;-49
2022/04/01 02:58:57;;;;;;;;;;;1.10;99.90;;;;;;10266740;28;84798;-48
2022/04/01 03:03:58;;;;;;;;;;;1.10;99.90;;;;;;10268735;28;87023;-49
2022/04/01 03:09:03;;;;;;;;;;;1.10;99.90;;;;;;10267390;28;85810;-47
2022/04/01 03:14:04;;;;;;;;;;;1.00;99.90;;;;;;10268528;28;86769;-48
2022/04/01 03:19:28;;;;;;;;;;;1.00;99.90;;;;;;10273417;28;84555;-48
2022/04/01 03:24:29;;;;;;;;;;;1.10;99.90;;;;;;10267094;28;86036;-52
2022/04/01 03:29:32;;;;;;;;;;;1.00;99.90;;;;;;10267004;28;86987;-48
2022/04/01 03:34:32;;;;;;;;;;;1.00;99.90;;;;;;10268038;28;86638;-52
2022/04/01 03:39:35;;;;;;;;;;;1.00;99.90;;;;;;10266771;28;85900;-48
2022/04/01 03:44:41;;;;;;;;;;;1.00;99.90;;;;;;10267418;28;85930;-49
2022/04/01 03:50:02;;;;;;;;;;;1.00;99.90;;;;;;10284023;28;84319;-48
2022/04/01 03:55:05;;;;;;;;;;;0.90;99.90;;;;;;10267319;28;85720;-48
2022/04/01 04:00:29;;;;;;;;;;;0.90;99.90;;;;;;10283850;28;85455;-53
2022/04/01 04:05:33;;;;;;;;;;;0.80;99.90;;;;;;10266465;28;85774;-50
2022/04/01 04:10:35;;;;;;;;;;;0.90;99.90;;;;;;10265556;28;86501;-51
2022/04/01 04:15:55;;;;;;;;;;;0.80;99.90;;;;;;10278883;28;85730;-51
2022/04/01 04:21:04;;;;;;;;;;;0.80;99.90;;;;;;10269829;28;86798;-52
2022/04/01 04:26:12;;;;;;;;;;;0.80;99.90;;;;;;10274396;28;86768;-49
2022/04/01 04:31:23;;;;;;;;;;;0.90;99.90;;;;;;10269282;28;85737;-52
2022/04/01 04:36:36;;;;;;;;;;;0.90;99.90;;;;;;10289923;28;84354;-48
2022/04/01 04:41:38;;;;;;;;;;;0.80;99.90;;;;;;10291039;28;84747;-49
2022/04/01 04:46:43;;;;;;;;;;;0.80;99.90;;;;;;10279800;28;86523;-49
2022/04/01 04:51:45;;;;;;;;;;;0.80;99.90;;;;;;10276746;28;86675;-50
2022/04/01 04:57:10;;;;;;;;;;;0.80;99.90;;;;;;10272552;28;87173;-50
2022/04/01 05:02:14;;;;;;;;;;;0.80;99.90;;;;;;10270414;28;86687;-48
2022/04/01 05:07:25;;;;;;;;;;;0.80;99.90;;;;;;10271134;28;85979;-48
2022/04/01 05:12:51;;;;;;;;;;;0.80;99.90;;;;;;10291539;28;84481;-51
2022/04/01 05:18:12;;;;;;;;;;;0.80;99.90;;;;;;10297468;28;84570;-48
2022/04/01 05:23:12;;;;;;;;;;;0.80;99.90;;;;;;10273956;28;86644;-48
2022/04/01 05:28:36;;;;;;;;;;;0.80;99.90;;;;;;10269819;28;85856;-48
2022/04/01 05:33:46;;;;;;;;;;;0.80;99.90;;;;;;10270125;28;85680;-49
2022/04/01 05:38:48;;;;;;;;;;;0.90;99.90;;;;;;10268069;28;85721;-49
2022/04/01 05:43:50;;;;;;;;;;;0.90;99.90;;;;;;10285740;28;85251;-50
2022/04/01 05:49:00;;;;;;;;;;;0.80;99.90;;;;;;10264703;28;86661;-50
2022/04/01 05:54:04;;;;;;;;;;;0.80;99.90;;;;;;10271622;28;85903;-48
2022/04/01 05:59:05;;;;;;;;;;;0.80;99.90;;;;;;10278274;28;86021;-48
2022/04/01 06:04:24;;;;;;;;;;;0.70;99.90;;;;;;10282499;28;85936;-51
2022/04/01 06:09:44;;;;;;;;;;;0.80;99.90;;;;;;10270005;28;85688;-49
2022/04/01 06:14:49;;;;;;;;;;;0.80;99.90;;;;;;10298496;28;84677;-54
2022/04/01 06:20:08;;;;;;;;;;;0.80;99.90;;;;;;10310763;28;84544;-50
2022/04/01 06:25:13;;;;;;;;;;;0.80;99.90;;;;;;10285597;28;86751;-50
2022/04/01 06:30:21;;;;;;;;;;;0.90;99.90;;;;;;10308799;28;85687;-60
2022/04/01 06:35:55;;;;;;;;;;;0.90;99.90;;;;;;10307420;28;84817;-47
2022/04/01 06:41:03;;;;;;;;;;;1.00;99.90;;;;;;10267850;28;87180;-53
2022/04/01 06:46:12;;;;;;;;;;;1.00;99.90;;;;;;10268691;28;87205;-59
2022/04/01 06:51:22;;;;;;;;;;;1.00;99.90;;;;;;10268932;28;85967;-58
2022/04/01 06:56:41;;;;;;;;;;;1.00;99.90;;;;;;10284939;28;84247;-59
2022/04/01 07:01:42;;;;;;;;;;;1.00;99.90;;;;;;10267610;28;86613;-59
2022/04/01 07:06:43;;;;;;;;;;;1.10;99.90;;;;;;10285190;28;84999;-60
2022/04/01 07:11:43;;;;;;;;;;;1.10;99.90;;;;;;10336037;22;84567;-48
2022/04/01 07:16:44;;;;;;;;;;;1.10;99.90;;;;;;10326864;28;84236;-46
2022/04/01 07:21:44;;;;;;;;;;;1.20;99.90;;;;;;10324977;28;84682;-61
2022/04/01 07:26:45;;;;;;;;;;;1.10;99.90;;;;;;10324387;28;85243;-56
2022/04/01 07:37:08;;;;;;;;;;;1.10;99.90;;;;;;10327303;28;85299;-50
2022/04/01 07:42:08;;;;;;;;;;;0.90;99.90;;;;;;10324448;28;84737;-56
2022/04/01 07:47:09;;;;;;;;;;;0.80;99.90;;;;;;10327897;28;85395;-57
2022/04/01 07:52:11;;;;;;;;;;;0.90;99.90;;;;;;10338746;28;84672;-51
2022/04/01 07:57:12;;;;;;;;;;;1.00;99.90;;;;;;10325041;28;84346;-54
2022/04/01 08:02:13;;;;;;;;;;;1.00;99.90;;;;;;10308092;28;84759;-58
2022/04/01 08:07:14;;;;;;;;;;;1.10;99.90;;;;;;10312863;28;84976;-56
2022/04/01 08:12:15;;;;;;;;;;;1.10;99.90;;;;;;10299176;28;86780;-57
2022/04/01 08:17:16;;;;;;;;;;;1.30;99.90;;;;;;10326429;28;84732;-55
2022/04/01 08:22:18;;;;;;;;;;;1.40;99.90;;;;;;10334196;28;86420;-48
2022/04/01 08:27:19;;;;;;;;;;;1.30;99.90;;;;;;10313937;28;84999;-56
2022/04/01 08:32:19;;;;;;;;;;;1.20;99.90;;;;;;10334848;28;84256;-57
2022/04/01 08:37:20;;;;;;;;;;;1.20;99.90;;;;;;10332890;28;84307;-55
2022/04/01 08:42:20;;;;;;;;;;;1.40;99.90;;;;;;10333778;28;84757;-50
2022/04/01 08:47:21;;;;;;;;;;;1.30;99.90;;;;;;10339380;28;84254;-52
2022/04/01 08:52:22;;;;;;;;;;;1.30;99.90;;;;;;10357162;28;84917;-56
2022/04/01 08:57:23;;;;;;;;;;;1.40;99.90;;;;;;10345843;28;84968;-55
2022/04/01 09:02:24;;;;;;;;;;;1.40;99.90;;;;;;10331999;28;84044;-47
2022/04/01 09:07:25;;;;;;;;;;;1.40;99.90;;;;;;10331263;28;85050;-53
2022/04/01 09:12:25;;;;;;;;;;;1.40;99.90;;;;;;10313058;28;84281;-51
2022/04/01 09:17:46;;;;;;;;;;;1.30;99.90;;;;;;10334489;28;85017;-52
2022/04/01 09:22:46;;;;;;;;;;;1.30;99.90;;;;;;10338126;28;84743;-55
2022/04/01 09:27:53;;;;;;;;;;;1.30;99.90;;;;;;10331395;28;84119;-51
2022/04/01 09:32:55;;;;;;;;;;;1.30;99.90;;;;;;10313530;28;86041;-49
2022/04/01 09:37:58;;;;;;;;;;;1.40;99.90;;;;;;10328671;28;84772;-55
2022/04/01 09:42:59;;;;;;;;;;;1.30;99.90;;;;;;10330776;28;84334;-57
2022/04/01 09:48:04;;;;;;;;;;;1.40;99.90;;;;;;10332798;28;85009;-56
2022/04/01 09:53:08;;;;;;;;;;;1.60;99.90;;;;;;10352430;28;84929;-53
2022/04/01 09:58:08;;;;;;;;;;;1.60;99.90;;;;;;10363962;28;84767;-54
2022/04/01 10:03:10;;;;;;;;;;;1.70;99.90;;;;;;10335101;28;84341;-53
2022/04/01 10:08:11;;;;;;;;;;;1.50;99.90;;;;;;10328810;28;85745;-52
2022/04/01 10:13:21;;;;;;;;;;;1.60;99.90;;;;;;10329891;28;84887;-49
2022/04/01 10:18:22;;;;;;;;;;;1.50;99.90;;;;;;10314259;28;85247;-52
2022/04/01 10:23:24;;;;;;;;;;;1.50;99.90;;;;;;10365599;28;84917;-55
2022/04/01 10:28:25;;;;;;;;;;;1.70;99.90;;;;;;10343507;28;84232;-55
2022/04/01 10:33:27;;;;;;;;;;;1.70;99.90;;;;;;10328212;28;84922;-52
2022/04/01 10:38:28;;;;;;;;;;;1.80;99.90;;;;;;10325965;28;84968;-52
2022/04/01 10:43:30;;;;;;;;;;;1.80;99.90;;;;;;10328864;28;84340;-50
2022/04/01 10:53:52;;;;;;;;;;;1.80;99.90;;;;;;10340128;28;84285;-46
2022/04/01 10:59:08;;;;;;;;;;;1.90;99.90;;;;;;10356735;28;84114;-48
2022/04/01 11:04:09;;;;;;;;;;;2.00;99.90;;;;;;10288086;28;84740;-50
2022/04/01 11:09:29;;;;;;;;;;;2.00;99.90;;;;;;10325774;28;84260;-51
2022/04/01 11:14:30;;;;;;;;;;;1.90;99.90;;;;;;10328905;28;84892;-48
2022/04/01 11:19:30;;;;;;;;;;;2.00;99.90;;;;;;10327202;28;83978;-55
2022/04/01 11:24:33;;;;;;;;;;;2.00;99.90;;;;;;10310437;28;85119;-50
2022/04/01 11:29:34;;;;;;;;;;;2.00;99.90;;;;;;10319560;28;84408;-49
2022/04/01 11:34:53;;;;;;;;;;;2.10;99.90;;;;;;10325043;28;84003;-48
2022/04/01 11:40:05;;;;;;;;;;;2.10;99.90;;;;;;10330275;28;84172;-46
2022/04/01 11:45:06;;;;;;;;;;;2.10;99.90;;;;;;10325653;28;84625;-58
2022/04/01 11:50:10;;;;;;;;;;;2.10;99.90;;;;;;10326390;28;86351;-53
2022/04/01 11:55:21;;;;;;;;;;;2.30;99.90;;;;;;10327483;28;84764;-54
2022/04/01 12:00:23;;;;;;;;;;;2.40;99.90;;;;;;10323785;28;85618;-54
2022/04/01 12:05:29;;;;;;;;;;;2.50;99.90;;;;;;10349134;28;84220;-56
2022/04/01 12:10:29;;;;;;;;;;;2.60;99.90;;;;;;10322041;28;85798;-55
2022/04/01 12:15:34;;;;;;;;;;;2.70;99.90;;;;;;10328096;28;85886;-53
2022/04/01 12:20:41;;;;;;;;;;;2.80;99.90;;;;;;10360881;28;84159;-55
2022/04/01 12:25:42;;;;;;;;;;;2.80;99.90;;;;;;10306047;28;87178;-51
2022/04/01 12:30:44;;;;;;;;;;;2.90;99.90;;;;;;10324429;28;84986;-53
2022/04/01 12:35:54;;;;;;;;;;;3.00;99.90;;;;;;10312846;28;86106;-63
2022/04/01 12:40:59;;;;;;;;;;;3.00;99.90;;;;;;10341106;28;84476;-55
2022/04/01 12:46:00;;;;;;;;;;;3.00;99.90;;;;;;10308445;28;84312;-53
2022/04/01 12:51:03;;;;;;;;;;;3.10;99.90;;;;;;10334302;28;86714;-57
2022/04/01 12:56:14;;;;;;;;;;;3.10;99.90;;;;;;10363041;28;84187;-54
2022/04/01 13:01:18;;;;;;;;;;;3.10;99.90;;;;;;10367056;28;84824;-50
2022/04/01 13:06:20;;;;;;;;;;;3.00;99.90;;;;;;10321045;28;86780;-52
2022/04/01 13:11:21;;;;;;;;;;;2.90;99.90;;;;;;10329855;22;84372;-55
2022/04/01 13:16:22;;;;;;;;;;;2.80;99.90;;;;;;10303488;28;85208;-54
2022/04/01 13:21:24;;;;;;;;;;;2.70;99.90;;;;;;10306900;28;84982;-54
2022/04/01 13:26:24;;;;;;;;;;;2.80;99.90;;;;;;10312948;28;84852;-52
2022/04/01 13:31:25;;;;;;;;;;;2.80;99.90;;;;;;10308403;28;84914;-51
2022/04/01 13:36:25;;;;;;;;;;;2.70;99.90;;;;;;10309075;28;84742;-55
2022/04/01 13:41:26;;;;;;;;;;;2.70;99.90;;;;;;10306129;28;85488;-51
2022/04/01 13:46:27;;;;;;;;;;;2.60;99.90;;;;;;10313493;28;84088;-58
2022/04/01 13:51:28;;;;;;;;;;;2.70;99.90;;;;;;10309532;28;84280;-51
2022/04/01 13:56:28;;;;;;;;;;;2.80;99.90;;;;;;10300345;28;86688;-49
2022/04/01 14:01:29;;;;;;;;;;;2.80;99.90;;;;;;10289231;28;84950;-56
2022/04/01 14:06:31;;;;;;;;;;;2.80;99.90;;;;;;10302503;28;84281;-54
2022/04/01 14:11:34;;;;;;;;;;;2.70;99.90;;;;;;10300803;28;84855;-55
2022/04/01 14:16:36;;;;;;;;;;;2.90;99.90;;;;;;10269529;28;84412;-52
2022/04/01 14:21:37;;;;;;;;;;;2.80;99.90;;;;;;10292651;28;84830;-54
2022/04/01 14:26:37;;;;;;;;;;;2.90;99.90;;;;;;10284003;28;84659;-54
2022/04/01 14:31:57;;;;;;;;;;;2.90;99.90;;;;;;10288312;28;85140;-53
2022/04/01 14:36:58;;;;;;;;;;;3.10;99.90;;;;;;10293417;28;84347;-61
2022/04/01 14:41:59;;;;;;;;;;;3.00;99.90;;;;;;10329974;28;84090;-61
2022/04/01 14:47:01;;;;;;;;;;;3.10;99.90;;;;;;10314877;28;84823;-60
2022/04/01 14:52:02;;;;;;;;;;;3.10;99.90;;;;;;10320138;28;85024;-57
2022/04/01 14:57:03;;;;;;;;;;;3.30;99.90;;;;;;10306652;28;84168;-58
2022/04/01 15:02:03;;;;;;;;;;;3.30;99.90;;;;;;10290811;28;84982;-58
2022/04/01 15:07:04;;;;;;;;;;;3.30;99.90;;;;;;10287184;28;84179;-60
2022/04/01 15:12:05;;;;;;;;;;;3.30;99.90;;;;;;10287111;28;84026;-53
2022/04/01 15:17:06;;;;;;;;;;;3.40;99.90;;;;;;10286982;28;84246;-56
2022/04/01 15:22:07;;;;;;;;;;;3.30;99.90;;;;;;10267623;28;85727;-56
2022/04/01 15:27:07;;;;;;;;;;;3.20;99.90;;;;;;10284752;28;84259;-54
2022/04/01 15:32:08;;;;;;;;;;;3.20;99.90;;;;;;10265417;28;86838;-55
2022/04/01 15:37:13;;;;;;;;;;;3.20;99.90;;;;;;10272402;28;84904;-53
2022/04/01 15:42:15;;;;;;;;;;;3.20;99.90;;;;;;10265516;28;84145;-56
2022/04/01 15:47:18;;;;;;;;;;;3.10;99.90;;;;;;10292640;28;85039;-54
2022/04/01 15:52:18;;;;;;;;;;;3.10;99.90;;;;;;10270664;28;86300;-53
2022/04/01 15:57:19;;;;;;;;;;;3.10;99.90;;;;;;10324844;28;84527;-55
2022/04/01 16:02:28;;;;;;;;;;;3.10;99.90;;;;;;10327387;28;84896;-51
2022/04/01 16:07:30;;;;;;;;;;;3.10;99.90;;;;;;10326844;28;84106;-55
2022/04/01 16:12:31;;;;;;;;;;;3.20;99.90;;;;;;10326468;28;84105;-56
2022/04/01 16:17:32;;;;;;;;;;;3.10;99.90;;;;;;10326063;28;85048;-55
2022/04/01 16:22:32;;;;;;;;;;;2.80;99.90;;;;;;10326568;28;84000;-57
2022/04/01 16:27:34;;;;;;;;;;;2.70;99.90;;;;;;10329123;28;84881;-51
2022/04/01 16:32:37;;;;;;;;;;;2.70;99.90;;;;;;10333235;28;85775;-55
2022/04/01 16:37:37;;;;;;;;;;;2.60;99.90;;;;;;10332873;28;84952;-51
2022/04/01 16:42:38;;;;;;;;;;;2.60;99.90;;;;;;10333607;28;84006;-53
2022/04/01 16:47:39;;;;;;;;;;;2.60;99.90;;;;;;10332553;28;84247;-56
2022/04/01 16:52:40;;;;;;;;;;;2.50;99.90;;;;;;10333675;28;85613;-54
2022/04/01 16:57:41;;;;;;;;;;;2.40;99.90;;;;;;10332041;28;85273;-53
2022/04/01 17:02:42;;;;;;;;;;;2.30;99.90;;;;;;10333115;28;84931;-54
2022/04/01 17:13:01;;;;;;;;;;;2.30;99.90;;;;;;10332803;28;84747;-55
2022/04/01 17:18:02;;;;;;;;;;;2.30;99.90;;;;;;10331062;28;84190;-53
2022/04/01 17:23:05;;;;;;;;;;;2.30;99.90;;;;;;10314617;28;84054;-55
2022/04/01 17:28:07;;;;;;;;;;;2.40;99.90;;;;;;10331649;28;84973;-54
2022/04/01 17:33:08;;;;;;;;;;;2.40;99.90;;;;;;10332694;28;84151;-56
2022/04/01 17:38:09;;;;;;;;;;;2.40;99.90;;;;;;10312663;28;84722;-54
2022/04/01 17:43:11;;;;;;;;;;;2.40;99.90;;;;;;10331673;28;84132;-56
2022/04/01 17:48:13;;;;;;;;;;;2.30;99.90;;;;;;10330407;28;84082;-56
2022/04/01 17:53:14;;;;;;;;;;;2.40;99.90;;;;;;10302795;28;84909;-52
2022/04/01 17:58:15;;;;;;;;;;;2.50;99.90;;;;;;10289468;28;85409;-55
2022/04/01 18:03:21;;;;;;;;;;;2.40;99.90;;;;;;10290155;28;84078;-53
2022/04/01 18:08:27;;;;;;;;;;;2.40;99.90;;;;;;10288504;28;86386;-56
2022/04/01 18:13:29;;;;;;;;;;;2.40;99.90;;;;;;10272001;28;85243;-56
2022/04/01 18:18:30;;;;;;;;;;;2.30;99.90;;;;;;10288565;28;84197;-51
2022/04/01 18:23:30;;;;;;;;;;;2.20;99.90;;;;;;10289766;28;84830;-54
2022/04/01 18:28:57;;;;;;;;;;;2.20;99.90;;;;;;10288687;28;84759;-53
2022/04/01 18:34:02;;;;;;;;;;;2.20;99.90;;;;;;10264961;28;84250;-52
2022/04/01 18:39:05;;;;;;;;;;;2.20;99.90;;;;;;10254155;28;86030;-52
2022/04/01 18:44:06;;;;;;;;;;;2.20;99.90;;;;;;10289130;28;84731;-54
2022/04/01 18:49:07;;;;;;;;;;;2.30;99.90;;;;;;10287612;28;84108;-51
2022/04/01 18:54:09;;;;;;;;;;;2.40;99.90;;;;;;10288865;28;85920;-52
2022/04/01 18:59:10;;;;;;;;;;;2.40;99.90;;;;;;10287040;28;84788;-55
2022/04/01 19:04:14;;;;;;;;;;;2.50;99.90;;;;;;10270308;28;87084;-57
2022/04/01 19:09:18;;;;;;;;;;;2.70;99.90;;;;;;10320622;22;85084;-51
2022/04/01 19:14:18;;;;;;;;;;;2.80;99.90;;;;;;10352733;28;85087;-50
2022/04/01 19:19:24;;;;;;;;;;;2.80;99.90;;;;;;10368673;28;84141;-53
2022/04/01 19:24:25;;;;;;;;;;;2.90;1.00;;;;;;10370355;28;84901;-50
2022/04/01 19:29:26;;;;;;;;;;;2.90;1.00;;;;;;10368334;28;84752;-53
2022/04/01 19:34:28;;;;;;;;;;;2.90;1.00;;;;;;10364497;28;84343;-50
2022/04/01 19:39:30;;;;;;;;;;;3.00;1.00;;;;;;10377028;28;84227;-49
2022/04/01 19:44:31;;;;;;;;;;;3.00;1.00;;;;;;10340864;28;84816;-52
2022/04/01 19:49:31;;;;;;;;;;;3.00;1.00;;;;;;10327350;28;84562;-53
2022/04/01 19:54:32;;;;;;;;;;;2.90;1.00;;;;;;10328554;28;85006;-54
2022/04/01 19:59:33;;;;;;;;;;;2.90;1.00;;;;;;10367368;28;84916;-53
2022/04/01 20:04:33;;;;;;;;;;;3.00;1.00;;;;;;10372381;28;84127;-49
2022/04/01 20:09:34;;;;;;;;;;;2.90;1.00;;;;;;10381624;28;84215;-52
2022/04/01 20:14:35;;;;;;;;;;;2.90;1.00;;;;;;10374293;28;84950;-51
2022/04/01 20:19:36;;;;;;;;;;;2.90;1.00;;;;;;10370585;28;84636;-57
2022/04/01 20:24:37;;;;;;;;;;;2.90;1.00;;;;;;10372016;28;84072;-59
2022/04/01 20:29:37;;;;;;;;;;;2.90;1.00;;;;;;10370181;28;84410;-50
2022/04/01 20:34:38;;;;;;;;;;;3.00;1.00;;;;;;10353229;28;86037;-49
2022/04/01 20:39:39;;;;;;;;;;;3.00;1.00;;;;;;10369194;28;85265;-52
2022/04/01 20:44:39;;;;;;;;;;;3.00;1.00;;;;;;10366084;28;84846;-53
2022/04/01 20:49:40;;;;;;;;;;;3.00;1.00;;;;;;10369728;28;84229;-49
2022/04/01 20:54:40;;;;;;;;;;;3.00;1.00;;;;;;10357985;28;85036;-51
2022/04/01 20:59:43;;;;;;;;;;;3.00;1.00;;;;;;10371455;28;84272;-53
2022/04/01 21:04:43;;;;;;;;;;;3.00;1.00;;;;;;10351784;28;84292;-49
2022/04/01 21:09:44;;;;;;;;;;;3.00;1.00;;;;;;10368969;28;84371;-46
2022/04/01 21:14:45;;;;;;;;;;;3.10;1.00;;;;;;10372812;28;85068;-54
2022/04/01 21:19:46;;;;;;;;;;;3.10;1.00;;;;;;10358272;28;84887;-52
2022/04/01 21:24:46;;;;;;;;;;;3.00;1.00;;;;;;10360909;28;84181;-54
2022/04/01 21:29:47;;;;;;;;;;;3.00;1.00;;;;;;10338954;28;84235;-51
2022/04/01 21:34:48;;;;;;;;;;;2.90;1.00;;;;;;10374059;28;84292;-52
2022/04/01 21:39:48;;;;;;;;;;;2.90;1.00;;;;;;10357289;28;84213;-51
2022/04/01 21:44:50;;;;;;;;;;;3.00;1.00;;;;;;10348315;28;86653;-52
2022/04/01 21:49:50;;;;;;;;;;;3.00;1.00;;;;;;10347207;28;85239;-52
2022/04/01 21:54:51;;;;;;;;;;;3.00;1.00;;;;;;10356331;28;84678;-49
2022/04/01 21:59:51;;;;;;;;;;;3.00;1.00;;;;;;10354297;28;84446;-53
2022/04/01 22:04:52;;;;;;;;;;;3.10;1.00;;;;;;10354486;28;84974;-52
2022/04/01 22:09:52;;;;;;;;;;;3.10;1.00;;;;;;10364396;28;85120;-51
2022/04/01 22:14:53;;;;;;;;;;;3.10;99.90;;;;;;10335446;28;84538;-50
2022/04/01 22:19:54;;;;;;;;;;;3.00;99.90;;;;;;10331701;28;84930;-49
2022/04/01 22:24:54;;;;;;;;;;;3.00;99.90;;;;;;10366987;28;84878;-55
2022/04/01 22:29:55;;;;;;;;;;;3.00;99.90;;;;;;10353121;28;86091;-50
2022/04/01 22:34:55;;;;;;;;;;;3.10;99.90;;;;;;10371906;28;84113;-50
2022/04/01 22:39:57;;;;;;;;;;;3.10;99.90;;;;;;10371386;28;84031;-51
2022/04/01 22:44:57;;;;;;;;;;;3.10;99.90;;;;;;10371980;28;84216;-55
2022/04/01 22:49:58;;;;;;;;;;;3.10;99.90;;;;;;10352185;28;84129;-50
2022/04/01 22:55:00;;;;;;;;;;;3.00;99.90;;;;;;10370217;28;84867;-49
2022/04/01 23:00:00;;;;;;;;;;;3.00;99.90;;;;;;10368585;28;84937;-53
2022/04/01 23:05:01;;;;;;;;;;;3.00;99.90;;;;;;10360337;28;84945;-48
2022/04/01 23:10:02;;;;;;;;;;;3.10;99.90;;;;;;10350230;28;85062;-52
2022/04/01 23:15:04;;;;;;;;;;;3.10;58.30;;;;;;10337727;28;85871;-52
2022/04/01 23:20:06;;;;;;;;;;;3.10;68.40;;;;;;10355055;28;84854;-53
2022/04/01 23:25:07;;;;;;;;;;;3.00;8.10;;;;;;10354855;28;85200;-53
2022/04/01 23:30:08;;;;;;;;;;;3.00;1.00;;;;;;10370362;28;84805;-53
2022/04/01 23:35:09;;;;;;;;;;;3.00;1.00;;;;;;10375251;28;85281;-52
2022/04/01 23:40:09;;;;;;;;;;;3.00;1.00;;;;;;10353944;28;84690;-51
2022/04/01 23:45:10;;;;;;;;;;;3.00;24.50;;;;;;10369146;28;84692;-54
2022/04/01 23:50:10;;;;;;;;;;;3.00;1.00;;;;;;10368435;28;85090;-51
2022/04/01 23:55:11;;;;;;;;;;;3.00;1.00;;;;;;10366377;28;91145;-53
